createdAt,value
2023-01-07T00:00:50.506Z,10.67
2023-01-07T00:03:16.900Z,10.67
2023-01-07T00:05:43.368Z,10.66
2023-01-07T00:08:09.699Z,10.64
2023-01-07T00:10:37.408Z,10.64
2023-01-07T00:13:03.725Z,10.62
2023-01-07T00:15:30.096Z,10.62
2023-01-07T00:17:56.417Z,10.61
2023-01-07T00:20:22.716Z,10.63
2023-01-07T00:22:49.985Z,10.60
2023-01-07T00:25:16.430Z,10.56
2023-01-07T00:27:44.048Z,10.62
2023-01-07T00:30:11.069Z,10.53
2023-01-07T00:32:37.392Z,10.48
2023-01-07T00:35:03.933Z,10.43
2023-01-07T00:37:30.254Z,10.48
2023-01-07T00:39:56.848Z,10.45
2023-01-07T00:42:23.166Z,10.47
2023-01-07T00:44:50.834Z,10.48
2023-01-07T00:47:17.151Z,10.44
2023-01-07T00:49:43.510Z,10.42
2023-01-07T00:52:09.824Z,10.47
2023-01-07T00:54:36.177Z,10.44
2023-01-07T00:57:02.491Z,10.52
2023-01-07T00:59:28.794Z,10.49
2023-01-07T01:01:56.643Z,10.50
2023-01-07T01:04:23.019Z,10.52
2023-01-07T01:06:49.317Z,10.57
2023-01-07T01:09:15.612Z,10.53
2023-01-07T01:11:41.989Z,10.58
2023-01-07T01:14:09.425Z,10.57
2023-01-07T01:16:35.797Z,10.59
2023-01-07T01:19:03.497Z,10.59
2023-01-07T01:21:29.787Z,10.61
2023-01-07T01:23:56.100Z,10.59
2023-01-07T01:26:22.434Z,10.58
2023-01-07T01:28:48.761Z,10.60
2023-01-07T01:31:15.129Z,10.60
2023-01-07T01:33:41.496Z,10.56
2023-01-07T01:36:11.246Z,10.60
2023-01-07T01:38:37.559Z,10.58
2023-01-07T01:41:04.062Z,10.58
2023-01-07T01:43:31.174Z,10.58
2023-01-07T01:45:58.626Z,10.57
2023-01-07T01:48:25.286Z,10.55
2023-01-07T01:50:52.035Z,10.54
2023-01-07T01:53:22.028Z,10.54
2023-01-07T01:55:50.285Z,10.55
2023-01-07T01:58:18.645Z,10.59
2023-01-07T02:00:45.038Z,10.60
2023-01-07T02:03:13.052Z,10.61
2023-01-07T02:05:40.630Z,10.60
2023-01-07T02:08:07.245Z,10.62
2023-01-07T02:10:35.148Z,10.60
2023-01-07T02:13:08.644Z,10.54
2023-01-07T02:15:40.548Z,10.51
2023-01-07T02:18:16.219Z,10.49
2023-01-07T02:21:00.436Z,10.52
2023-01-07T02:23:45.246Z,10.46
2023-01-07T02:26:29.258Z,10.44
2023-01-07T02:29:22.454Z,10.40
2023-01-07T02:32:03.794Z,10.43
2023-01-07T02:34:33.479Z,10.40
2023-01-07T02:37:03.252Z,10.41
2023-01-07T02:39:38.658Z,10.38
2023-01-07T02:42:11.863Z,10.41
2023-01-07T02:44:40.054Z,10.39
2023-01-07T02:47:11.973Z,10.40
2023-01-07T02:49:38.388Z,10.37
2023-01-07T02:52:16.472Z,10.37
2023-01-07T02:54:44.030Z,10.31
2023-01-07T02:57:21.941Z,10.35
2023-01-07T03:00:00.962Z,10.31
2023-01-07T03:02:36.987Z,10.29
2023-01-07T03:05:17.975Z,10.25
2023-01-07T03:07:52.088Z,10.21
2023-01-07T03:10:22.340Z,10.19
2023-01-07T03:12:51.838Z,10.17
2023-01-07T03:15:20.418Z,10.16
2023-01-07T03:17:51.816Z,10.15
2023-01-07T03:20:19.882Z,10.14
2023-01-07T03:22:46.946Z,10.17
2023-01-07T03:25:13.671Z,10.19
2023-01-07T03:27:42.171Z,10.18
2023-01-07T03:30:11.334Z,10.22
2023-01-07T03:32:39.110Z,10.23
2023-01-07T03:35:07.735Z,10.24
2023-01-07T03:37:34.242Z,10.20
2023-01-07T03:40:02.718Z,10.20
2023-01-07T03:42:30.821Z,10.20
2023-01-07T03:44:57.682Z,10.21
2023-01-07T03:47:24.775Z,10.20
2023-01-07T03:49:51.089Z,10.21
2023-01-07T03:52:18.794Z,10.23
2023-01-07T03:54:45.121Z,10.21
2023-01-07T03:57:11.484Z,10.21
2023-01-07T03:59:37.781Z,10.19
2023-01-07T04:02:04.175Z,10.18
2023-01-07T04:04:30.741Z,10.15
2023-01-07T04:06:57.077Z,10.17
2023-01-07T04:09:24.710Z,10.14
2023-01-07T04:11:51.021Z,10.15
2023-01-07T04:14:17.346Z,10.15
2023-01-07T04:16:43.738Z,10.10
2023-01-07T04:19:10.155Z,10.09
2023-01-07T04:21:36.489Z,10.07
2023-01-07T04:24:03.132Z,10.06
2023-01-07T04:26:30.769Z,10.03
2023-01-07T04:28:57.086Z,10.04
2023-01-07T04:31:23.407Z,10.00
2023-01-07T04:33:49.698Z,10.03
2023-01-07T04:36:16.036Z,10.01
2023-01-07T04:38:42.368Z,10.02
2023-01-07T04:41:08.714Z,10.01
2023-01-07T04:43:36.387Z,10.00
2023-01-07T04:46:03.309Z,10.00
2023-01-07T04:48:29.881Z,10.00
2023-01-07T04:50:56.282Z,10.00
2023-01-07T04:53:22.644Z,10.01
2023-01-07T04:55:49.042Z,10.00
2023-01-07T04:58:15.340Z,10.00
2023-01-07T05:00:42.997Z,10.00
2023-01-07T05:03:09.328Z,10.03
2023-01-07T05:05:35.618Z,10.02
2023-01-07T05:08:01.967Z,10.04
2023-01-07T05:10:28.332Z,10.03
2023-01-07T05:12:54.652Z,10.06
2023-01-07T05:15:20.964Z,10.06
2023-01-07T05:17:48.600Z,10.06
2023-01-07T05:20:14.973Z,10.05
2023-01-07T05:22:41.299Z,10.06
2023-01-07T05:25:07.904Z,10.07
2023-01-07T05:27:34.238Z,10.10
2023-01-07T05:30:00.589Z,10.10
2023-01-07T05:32:26.937Z,10.10
2023-01-07T05:34:54.597Z,10.13
2023-01-07T05:37:20.908Z,10.13
2023-01-07T05:39:47.223Z,10.15
2023-01-07T05:42:13.524Z,10.15
2023-01-07T05:44:39.897Z,10.16
2023-01-07T05:47:06.200Z,10.17
2023-01-07T05:49:32.493Z,10.18
2023-01-07T05:52:00.171Z,10.20
2023-01-07T05:54:26.494Z,10.20
2023-01-07T05:56:52.851Z,10.20
2023-01-07T05:59:19.191Z,10.17
2023-01-07T06:01:45.543Z,10.19
2023-01-07T06:04:11.885Z,10.17
2023-01-07T06:06:38.212Z,10.16
2023-01-07T06:09:05.861Z,10.17
2023-01-07T06:11:32.184Z,10.19
2023-01-07T06:13:58.498Z,10.16
2023-01-07T06:16:24.795Z,10.16
2023-01-07T06:18:51.065Z,10.11
2023-01-07T06:21:17.394Z,10.12
2023-01-07T06:23:43.710Z,10.13
2023-01-07T06:26:11.369Z,10.15
2023-01-07T06:28:37.647Z,10.16
2023-01-07T06:31:04.086Z,10.14
2023-01-07T06:33:32.644Z,10.12
2023-01-07T06:35:59.697Z,10.13
2023-01-07T06:38:26.053Z,10.10
2023-01-07T06:40:52.391Z,10.16
2023-01-07T06:43:20.142Z,10.20
2023-01-07T06:45:46.606Z,10.22
2023-01-07T06:48:13.020Z,10.17
2023-01-07T06:50:39.351Z,10.16
2023-01-07T06:53:05.725Z,10.15
2023-01-07T06:55:32.059Z,10.17
2023-01-07T06:57:58.365Z,10.12
2023-01-07T07:00:26.061Z,10.13
2023-01-07T07:02:52.422Z,10.12
2023-01-07T07:05:18.817Z,10.09
2023-01-07T07:07:45.141Z,10.09
2023-01-07T07:10:11.464Z,10.08
2023-01-07T07:12:38.493Z,10.05
2023-01-07T07:15:05.489Z,10.02
2023-01-07T07:17:33.428Z,10.03
2023-01-07T07:19:59.725Z,9.99
2023-01-07T07:22:26.038Z,10.01
2023-01-07T07:24:52.365Z,10.04
2023-01-07T07:27:18.729Z,9.99
2023-01-07T07:29:45.106Z,10.03
2023-01-07T07:32:11.429Z,10.04
2023-01-07T07:34:39.106Z,10.04
2023-01-07T07:37:05.389Z,10.04
2023-01-07T07:39:31.735Z,10.10
2023-01-07T07:41:58.058Z,10.07
2023-01-07T07:44:24.401Z,10.08
2023-01-07T07:46:50.761Z,10.11
2023-01-07T07:49:17.073Z,10.13
2023-01-07T07:51:44.742Z,10.14
2023-01-07T07:54:11.030Z,10.12
2023-01-07T07:56:37.333Z,10.14
2023-01-07T07:59:03.841Z,10.12
2023-01-07T08:01:30.269Z,10.13
2023-01-07T08:03:56.676Z,10.14
2023-01-07T08:06:23.007Z,10.18
2023-01-07T08:08:50.654Z,10.19
2023-01-07T08:11:17.026Z,10.19
2023-01-07T08:13:43.306Z,10.25
2023-01-07T08:16:09.666Z,10.23
2023-01-07T08:18:36.028Z,10.23
2023-01-07T08:21:02.326Z,10.26
2023-01-07T08:23:28.667Z,10.27
2023-01-07T08:25:58.556Z,10.28
2023-01-07T08:28:24.856Z,10.30
2023-01-07T08:30:51.191Z,10.35
2023-01-07T08:33:17.518Z,10.33
2023-01-07T08:35:44.210Z,10.34
2023-01-07T08:38:10.551Z,10.35
2023-01-07T08:40:38.150Z,10.34
2023-01-07T08:43:07.316Z,10.36
2023-01-07T08:45:33.663Z,10.32
2023-01-07T08:48:00.032Z,10.35
2023-01-07T08:50:26.850Z,10.37
2023-01-07T08:52:53.367Z,10.37
2023-01-07T08:55:19.906Z,10.39
2023-01-07T08:57:46.256Z,10.39
2023-01-07T09:00:16.033Z,10.43
2023-01-07T09:02:42.608Z,10.42
2023-01-07T09:05:09.694Z,10.46
2023-01-07T09:07:36.031Z,10.50
2023-01-07T09:10:02.413Z,10.52
2023-01-07T09:12:28.752Z,10.54
2023-01-07T09:14:55.095Z,10.54
2023-01-07T09:17:24.213Z,10.57
2023-01-07T09:19:50.661Z,10.61
2023-01-07T09:22:16.951Z,10.63
2023-01-07T09:24:43.438Z,10.64
2023-01-07T09:27:09.751Z,10.67
2023-01-07T09:29:36.106Z,10.70
2023-01-07T09:32:02.423Z,10.70
2023-01-07T09:34:30.113Z,10.70
2023-01-07T09:36:56.419Z,10.74
2023-01-07T09:39:22.755Z,10.75
2023-01-07T09:41:51.702Z,10.79
2023-01-07T09:44:25.100Z,10.83
2023-01-07T09:46:53.405Z,10.87
2023-01-07T09:49:20.106Z,10.91
2023-01-07T09:51:51.302Z,10.94
2023-01-07T09:54:24.306Z,10.98
2023-01-07T09:56:50.707Z,11.03
2023-01-07T09:59:17.667Z,11.06
2023-01-07T10:01:46.586Z,11.07
2023-01-07T10:04:22.410Z,11.09
2023-01-07T10:06:53.472Z,11.10
2023-01-07T10:09:27.200Z,11.12
2023-01-07T10:11:59.043Z,11.13
2023-01-07T10:14:32.350Z,11.18
2023-01-07T10:17:03.509Z,11.14
2023-01-07T10:19:38.138Z,11.15
2023-01-07T10:22:10.241Z,11.20
2023-01-07T10:24:39.768Z,11.26
2023-01-07T10:27:09.931Z,11.29
2023-01-07T10:29:37.785Z,11.36
2023-01-07T10:32:07.304Z,11.43
2023-01-07T10:34:36.355Z,11.44
2023-01-07T10:37:06.060Z,11.41
2023-01-07T10:39:43.248Z,11.45
2023-01-07T10:42:12.529Z,11.39
2023-01-07T10:44:47.257Z,11.36
2023-01-07T10:47:18.653Z,11.37
2023-01-07T10:49:56.397Z,11.30
2023-01-07T10:52:31.623Z,11.42
2023-01-07T10:55:14.401Z,11.44
2023-01-07T10:57:40.999Z,11.39
2023-01-07T11:00:12.196Z,11.43
2023-01-07T11:02:38.745Z,11.41
2023-01-07T11:05:05.563Z,11.41
2023-01-07T11:07:40.425Z,11.40
2023-01-07T11:10:13.060Z,11.37
2023-01-07T11:12:41.408Z,11.35
2023-01-07T11:15:13.527Z,11.35
2023-01-07T11:17:42.462Z,11.42
2023-01-07T11:20:10.546Z,11.38
2023-01-07T11:22:38.849Z,11.37
2023-01-07T11:25:20.050Z,11.38
2023-01-07T11:27:50.429Z,11.39
2023-01-07T11:30:21.385Z,11.38
2023-01-07T11:32:56.865Z,11.39
2023-01-07T11:35:23.531Z,11.38
2023-01-07T11:37:50.129Z,11.43
2023-01-07T11:40:18.544Z,11.50
2023-01-07T11:42:50.085Z,11.56
2023-01-07T11:45:18.506Z,11.62
2023-01-07T11:47:46.435Z,11.70
2023-01-07T11:50:21.339Z,11.73
2023-01-07T11:52:55.076Z,11.69
2023-01-07T11:55:21.960Z,11.72
2023-01-07T11:57:56.784Z,11.71
2023-01-07T12:00:27.380Z,11.76
2023-01-07T12:03:00.907Z,11.73
2023-01-07T12:05:27.514Z,11.78
2023-01-07T12:07:54.503Z,11.83
2023-01-07T12:10:32.037Z,11.85
2023-01-07T12:13:01.430Z,11.85
2023-01-07T12:15:29.203Z,11.82
2023-01-07T12:18:09.200Z,11.82
2023-01-07T12:20:54.183Z,11.81
2023-01-07T12:23:27.630Z,11.81
2023-01-07T12:26:01.387Z,11.83
2023-01-07T12:28:37.028Z,11.83
2023-01-07T12:31:14.457Z,11.89
2023-01-07T12:33:50.499Z,11.90
2023-01-07T12:36:19.993Z,11.93
2023-01-07T12:38:48.151Z,11.94
2023-01-07T12:41:16.621Z,12.00
2023-01-07T12:43:49.917Z,12.03
2023-01-07T12:46:19.093Z,12.08
2023-01-07T12:48:53.608Z,12.00
2023-01-07T12:51:22.475Z,12.02
2023-01-07T12:53:51.268Z,11.97
2023-01-07T12:56:21.668Z,11.97
2023-01-07T12:58:52.785Z,11.96
2023-01-07T13:01:25.629Z,11.95
2023-01-07T13:03:59.440Z,11.94
2023-01-07T13:06:35.458Z,11.99
2023-01-07T13:09:03.865Z,12.01
2023-01-07T13:11:34.026Z,11.94
2023-01-07T13:14:02.760Z,12.01
2023-01-07T13:16:29.043Z,11.98
2023-01-07T13:18:55.401Z,12.00
2023-01-07T13:21:22.099Z,12.06
2023-01-07T13:23:58.230Z,11.98
2023-01-07T13:26:30.436Z,11.99
2023-01-07T13:29:01.190Z,11.90
2023-01-07T13:31:37.651Z,11.95
2023-01-07T13:34:09.435Z,11.95
2023-01-07T13:36:41.820Z,11.95
2023-01-07T13:39:23.039Z,11.90
2023-01-07T13:42:01.736Z,11.91
2023-01-07T13:44:41.719Z,11.90
2023-01-07T13:47:12.654Z,11.92
2023-01-07T13:49:39.275Z,11.81
2023-01-07T13:52:24.366Z,11.72
2023-01-07T13:54:54.249Z,11.71
2023-01-07T13:57:39.735Z,11.60
2023-01-07T14:00:26.764Z,11.58
2023-01-07T14:02:55.767Z,11.57
2023-01-07T14:05:23.374Z,11.51
2023-01-07T14:07:51.673Z,11.50
2023-01-07T14:10:18.909Z,11.42
2023-01-07T14:12:50.489Z,11.40
2023-01-07T14:15:50.330Z,11.34
2023-01-07T14:18:35.539Z,11.30
2023-01-07T14:21:09.569Z,11.32
2023-01-07T14:23:38.971Z,11.26
2023-01-07T14:26:15.083Z,11.21
2023-01-07T14:29:01.123Z,11.18
2023-01-07T14:31:28.609Z,11.14
2023-01-07T14:33:56.009Z,11.18
2023-01-07T14:36:24.224Z,11.16
2023-01-07T14:38:59.447Z,11.12
2023-01-07T14:41:25.788Z,11.11
2023-01-07T14:44:13.124Z,11.24
2023-01-07T14:46:43.147Z,11.12
2023-01-07T14:49:11.631Z,11.14
2023-01-07T14:51:47.137Z,11.10
2023-01-07T14:54:28.351Z,11.06
2023-01-07T14:57:00.707Z,10.99
2023-01-07T14:59:46.356Z,10.94
2023-01-07T15:02:31.056Z,10.88
2023-01-07T15:05:06.867Z,10.89
2023-01-07T15:07:36.725Z,10.83
2023-01-07T15:10:11.962Z,10.72
2023-01-07T15:12:38.980Z,10.69
2023-01-07T15:15:10.307Z,10.60
2023-01-07T15:17:38.381Z,10.56
2023-01-07T15:20:05.505Z,10.48
2023-01-07T15:22:49.784Z,10.41
2023-01-07T15:25:22.933Z,10.38
2023-01-07T15:27:53.457Z,10.34
2023-01-07T15:30:26.750Z,10.30
2023-01-07T15:32:59.449Z,10.27
2023-01-07T15:35:28.986Z,10.28
2023-01-07T15:37:55.359Z,10.24
2023-01-07T15:40:24.905Z,10.22
2023-01-07T15:42:52.597Z,10.19
2023-01-07T15:45:19.781Z,10.22
2023-01-07T15:47:46.094Z,10.23
2023-01-07T15:50:20.787Z,10.20
2023-01-07T15:52:53.219Z,10.25
2023-01-07T15:55:24.095Z,10.24
2023-01-07T15:57:52.485Z,10.25
2023-01-07T16:00:19.077Z,10.29
2023-01-07T16:02:45.877Z,10.26
2023-01-07T16:05:12.795Z,10.26
2023-01-07T16:07:44.547Z,10.24
2023-01-07T16:10:18.573Z,10.26
2023-01-07T16:12:48.783Z,10.24
2023-01-07T16:15:25.919Z,10.24
2023-01-07T16:17:52.787Z,10.24
2023-01-07T16:20:20.932Z,10.22
2023-01-07T16:22:47.312Z,10.21
2023-01-07T16:25:21.340Z,10.24
2023-01-07T16:27:49.221Z,10.27
2023-01-07T16:30:16.052Z,10.28
2023-01-07T16:32:42.917Z,10.33
2023-01-07T16:35:13.632Z,10.36
2023-01-07T16:37:40.721Z,10.42
2023-01-07T16:40:14.881Z,10.37
2023-01-07T16:42:46.177Z,10.41
2023-01-07T16:45:22.598Z,10.43
2023-01-07T16:47:59.268Z,10.40
2023-01-07T16:50:38.805Z,10.42
2023-01-07T16:53:19.877Z,10.41
2023-01-07T16:55:47.339Z,10.41
2023-01-07T16:58:18.356Z,10.40
2023-01-07T17:00:51.968Z,10.40
2023-01-07T17:03:18.613Z,10.45
2023-01-07T17:05:57.455Z,10.50
2023-01-07T17:08:23.802Z,10.49
2023-01-07T17:10:56.207Z,10.55
2023-01-07T17:13:33.051Z,10.56
2023-01-07T17:18:53.578Z,10.47
2023-01-07T17:21:46.734Z,10.54
2023-01-07T17:24:32.178Z,10.52
2023-01-07T17:27:00.567Z,10.45
2023-01-07T17:29:33.464Z,10.42
2023-01-07T17:32:00.284Z,10.37
2023-01-07T17:34:28.066Z,10.39
2023-01-07T17:36:54.776Z,10.35
2023-01-07T17:39:21.748Z,10.33
2023-01-07T17:41:48.065Z,10.28
2023-01-07T17:44:14.481Z,10.36
2023-01-07T17:46:41.146Z,10.31
2023-01-07T17:49:08.545Z,10.31
2023-01-07T17:51:37.431Z,10.18
2023-01-07T17:54:04.361Z,10.15
2023-01-07T17:56:30.670Z,10.15
2023-01-07T17:58:57.532Z,10.20
2023-01-07T18:01:24.763Z,10.24
2023-01-07T18:03:51.913Z,10.21
2023-01-07T18:06:19.392Z,10.20
2023-01-07T18:08:50.392Z,10.31
2023-01-07T18:11:19.343Z,10.24
2023-01-07T18:13:45.646Z,10.21
2023-01-07T18:16:13.708Z,10.28
2023-01-07T18:18:40.313Z,10.24
2023-01-07T18:21:06.655Z,10.33
2023-01-07T18:23:32.946Z,10.27
2023-01-07T18:26:00.968Z,10.25
2023-01-07T18:28:27.251Z,10.28
2023-01-07T18:30:54.023Z,10.28
2023-01-07T18:33:20.938Z,10.27
2023-01-07T18:35:47.566Z,10.24
2023-01-07T18:38:14.725Z,10.24
2023-01-07T18:40:41.633Z,10.18
2023-01-07T18:43:12.630Z,10.11
2023-01-07T18:45:39.797Z,10.06
2023-01-07T18:48:06.382Z,10.04
2023-01-07T18:50:32.690Z,10.02
2023-01-07T18:52:59.138Z,10.03
2023-01-07T18:55:25.600Z,10.03
2023-01-07T18:57:51.934Z,10.05
2023-01-07T19:00:19.897Z,10.00
2023-01-07T19:02:46.245Z,10.04
2023-01-07T19:05:13.117Z,10.04
2023-01-07T19:07:39.434Z,10.10
2023-01-07T19:10:06.170Z,10.09
2023-01-07T19:12:32.532Z,10.10
2023-01-07T19:14:58.846Z,10.17
2023-01-07T19:17:26.525Z,10.16
2023-01-07T19:19:52.857Z,10.24
2023-01-07T19:22:19.245Z,10.31
2023-01-07T19:24:45.740Z,10.33
2023-01-07T19:27:12.055Z,10.31
2023-01-07T19:29:38.441Z,10.40
2023-01-07T19:32:05.168Z,10.42
2023-01-07T19:34:32.912Z,10.40
2023-01-07T19:37:03.041Z,10.46
2023-01-07T19:39:29.371Z,10.47
2023-01-07T19:41:57.278Z,10.49
2023-01-07T19:44:24.305Z,10.51
2023-01-07T19:46:50.796Z,10.56
2023-01-07T19:49:17.137Z,10.55
2023-01-07T19:51:44.797Z,10.53
2023-01-07T19:54:11.710Z,10.63
2023-01-07T19:56:38.172Z,10.54
2023-01-07T19:59:04.485Z,10.54
2023-01-07T20:01:31.589Z,10.55
2023-01-07T20:03:58.533Z,10.60
2023-01-07T20:06:26.510Z,10.60
2023-01-07T20:08:54.688Z,10.49
2023-01-07T20:11:21.375Z,10.50
2023-01-07T20:13:50.593Z,10.37
2023-01-07T20:16:18.157Z,10.37
2023-01-07T20:18:45.919Z,10.33
2023-01-07T20:21:12.988Z,10.26
2023-01-07T20:23:40.294Z,10.26
2023-01-07T20:26:09.720Z,10.20
2023-01-07T20:28:36.034Z,10.29
2023-01-07T20:31:04.111Z,10.20
2023-01-07T20:33:30.913Z,10.16
2023-01-07T20:36:00.112Z,10.19
2023-01-07T20:38:26.444Z,10.18
2023-01-07T20:40:52.774Z,10.22
2023-01-07T20:43:20.451Z,10.16
2023-01-07T20:45:46.816Z,10.19
2023-01-07T20:48:13.420Z,10.18
2023-01-07T20:50:39.733Z,10.13
2023-01-07T20:53:06.068Z,10.10
2023-01-07T20:55:32.410Z,10.08
2023-01-07T20:57:58.801Z,10.13
2023-01-07T21:00:26.482Z,10.11
2023-01-07T21:02:52.995Z,10.10
2023-01-07T21:05:19.351Z,10.06
2023-01-07T21:07:45.686Z,10.03
2023-01-07T21:10:12.302Z,10.09
2023-01-07T21:12:38.609Z,10.09
2023-01-07T21:15:05.613Z,10.08
2023-01-07T21:17:33.289Z,10.11
2023-01-07T21:19:59.644Z,10.11
2023-01-07T21:22:26.557Z,10.16
2023-01-07T21:24:52.884Z,10.12
2023-01-07T21:27:19.193Z,10.07
2023-01-07T21:29:45.517Z,10.13
2023-01-07T21:32:11.825Z,10.17
2023-01-07T21:34:39.487Z,10.11
2023-01-07T21:37:05.804Z,10.20
2023-01-07T21:39:32.088Z,10.17
2023-01-07T21:41:58.413Z,10.28
2023-01-07T21:44:24.740Z,10.27
2023-01-07T21:46:51.053Z,10.28
2023-01-07T21:49:23.548Z,10.26
2023-01-07T21:51:51.221Z,10.33
2023-01-07T21:54:17.520Z,10.26
2023-01-07T21:56:43.844Z,10.20
2023-01-07T21:59:10.179Z,10.26
2023-01-07T22:01:36.535Z,10.30
2023-01-07T22:04:03.578Z,10.31
2023-01-07T22:06:30.950Z,10.33
2023-01-07T22:09:02.660Z,10.31
2023-01-07T22:11:28.959Z,10.29
2023-01-07T22:13:56.351Z,10.33
2023-01-07T22:16:23.768Z,10.33
2023-01-07T22:18:50.197Z,10.29
2023-01-07T22:21:17.020Z,10.31
2023-01-07T22:23:43.659Z,10.37
2023-01-07T22:26:11.529Z,10.37
2023-01-07T22:28:38.216Z,10.35
2023-01-07T22:31:08.294Z,10.30
2023-01-07T22:33:34.635Z,10.24
2023-01-07T22:36:01.251Z,10.20
2023-01-07T22:38:27.783Z,10.19
2023-01-07T22:40:54.783Z,10.21
2023-01-07T22:43:23.490Z,10.22
2023-01-07T22:45:53.024Z,10.29
2023-01-07T22:48:20.764Z,10.27
2023-01-07T22:50:47.099Z,10.24
2023-01-07T22:53:13.442Z,10.22
2023-01-07T22:55:40.292Z,10.15
2023-01-07T22:58:06.886Z,10.11
2023-01-07T23:00:40.920Z,10.07
2023-01-07T23:03:07.390Z,10.08
2023-01-07T23:05:33.731Z,10.11
2023-01-07T23:08:00.169Z,10.15
2023-01-07T23:10:26.463Z,10.09
2023-01-07T23:12:52.774Z,10.14
2023-01-07T23:15:19.144Z,10.26
2023-01-07T23:17:46.805Z,10.28
2023-01-07T23:20:13.130Z,10.27
2023-01-07T23:22:39.456Z,10.23
2023-01-07T23:25:06.588Z,10.27
2023-01-07T23:27:32.917Z,10.33
2023-01-07T23:29:59.213Z,10.37
2023-01-07T23:32:25.516Z,10.41
2023-01-07T23:34:53.181Z,10.38
2023-01-07T23:37:19.473Z,10.38
2023-01-07T23:39:45.794Z,10.38
2023-01-07T23:42:12.154Z,10.36
2023-01-07T23:44:38.477Z,10.38
2023-01-07T23:47:05.066Z,10.37
2023-01-07T23:49:31.392Z,10.41
2023-01-07T23:51:59.123Z,10.38
2023-01-07T23:54:25.455Z,10.45
2023-01-07T23:56:51.807Z,10.47
2023-01-07T23:59:18.352Z,10.50
